createdAt,value
2022-12-05T00:00:40.857Z,53.69
2022-12-05T00:01:41.003Z,65.62
2022-12-05T00:02:40.933Z,59.99
2022-12-05T00:03:40.876Z,50.55
2022-12-05T00:04:40.887Z,50.39
2022-12-05T00:05:40.872Z,52.89
2022-12-05T00:06:40.806Z,60.36
2022-12-05T00:07:40.872Z,55.10
2022-12-05T00:08:40.826Z,57.87
2022-12-05T00:09:40.797Z,54.29
2022-12-05T00:10:40.752Z,53.97
2022-12-05T00:11:40.750Z,50.57
2022-12-05T00:12:40.755Z,55.70
2022-12-05T00:13:40.718Z,48.97
2022-12-05T00:14:40.726Z,49.76
2022-12-05T00:15:40.797Z,55.62
2022-12-05T00:16:40.815Z,50.92
2022-12-05T00:17:40.780Z,49.60
2022-12-05T00:18:40.732Z,58.07
2022-12-05T00:19:40.680Z,50.36
2022-12-05T00:20:40.672Z,54.87
2022-12-05T00:21:40.727Z,61.99
2022-12-05T00:22:40.644Z,57.19
2022-12-05T00:23:40.629Z,50.67
2022-12-05T00:24:40.617Z,55.15
2022-12-05T00:25:40.613Z,49.86
2022-12-05T00:26:40.623Z,47.17
2022-12-05T00:27:40.592Z,51.53
2022-12-05T00:28:40.592Z,48.70
2022-12-05T00:29:40.568Z,49.95
2022-12-05T00:30:40.571Z,53.65
2022-12-05T00:31:40.595Z,52.54
2022-12-05T00:32:40.563Z,51.65
2022-12-05T00:33:40.534Z,51.49
2022-12-05T00:34:40.513Z,53.72
2022-12-05T00:35:40.501Z,64.58
2022-12-05T00:36:40.499Z,53.56
2022-12-05T00:37:40.521Z,50.36
2022-12-05T00:38:40.487Z,52.21
2022-12-05T00:39:40.483Z,61.44
2022-12-05T00:40:40.469Z,48.48
2022-12-05T00:41:40.455Z,47.71
2022-12-05T00:42:40.438Z,51.35
2022-12-05T00:43:40.456Z,65.68
2022-12-05T00:44:40.436Z,50.48
2022-12-05T00:45:40.512Z,54.26
2022-12-05T00:46:40.405Z,56.40
2022-12-05T00:47:40.400Z,58.61
2022-12-05T00:48:40.395Z,54.66
2022-12-05T00:49:40.374Z,53.69
2022-12-05T00:50:40.387Z,56.09
2022-12-05T00:51:40.356Z,48.13
2022-12-05T00:52:40.338Z,48.47
2022-12-05T00:53:40.355Z,54.75
2022-12-05T00:54:40.327Z,56.73
2022-12-05T00:55:40.309Z,61.90
2022-12-05T00:56:40.323Z,58.83
2022-12-05T00:57:40.316Z,64.66
2022-12-05T00:58:40.289Z,55.21
2022-12-05T00:59:40.310Z,57.29
2022-12-05T01:00:40.263Z,51.47
2022-12-05T01:01:40.416Z,49.35
2022-12-05T01:02:40.277Z,60.53
2022-12-05T01:03:40.252Z,52.14
2022-12-05T01:04:40.263Z,50.07
2022-12-05T01:05:40.237Z,53.59
2022-12-05T01:06:40.221Z,48.04
2022-12-05T01:07:40.229Z,49.11
2022-12-05T01:08:40.192Z,51.95
2022-12-05T01:09:40.191Z,52.73
2022-12-05T01:10:40.185Z,58.65
2022-12-05T01:11:41.637Z,49.59
2022-12-05T01:12:41.180Z,47.38
2022-12-05T01:13:40.139Z,47.77
2022-12-05T01:14:40.138Z,56.89
2022-12-05T01:15:40.121Z,58.86
2022-12-05T01:16:40.205Z,55.25
2022-12-05T01:17:40.135Z,51.66
2022-12-05T01:18:40.093Z,51.70
2022-12-05T01:19:40.084Z,56.43
2022-12-05T01:20:40.078Z,52.77
2022-12-05T01:21:40.091Z,54.31
2022-12-05T01:22:40.056Z,60.55
2022-12-05T01:23:40.066Z,49.92
2022-12-05T01:24:40.060Z,49.93
2022-12-05T01:25:40.027Z,49.26
2022-12-05T01:26:40.007Z,51.79
2022-12-05T01:27:40.001Z,47.91
2022-12-05T01:28:40.054Z,48.09
2022-12-05T01:29:40.001Z,48.24
2022-12-05T01:30:39.977Z,48.47
2022-12-05T01:31:40.050Z,51.09
2022-12-05T01:32:39.966Z,51.02
2022-12-05T01:33:39.953Z,49.23
2022-12-05T01:34:39.964Z,47.63
2022-12-05T01:35:39.910Z,50.01
2022-12-05T01:36:39.908Z,59.17
2022-12-05T01:37:39.915Z,57.08
2022-12-05T01:38:39.893Z,62.95
2022-12-05T01:39:39.896Z,53.75
2022-12-05T01:40:39.870Z,51.81
2022-12-05T01:41:39.887Z,63.46
2022-12-05T01:42:39.885Z,59.49
2022-12-05T01:43:39.847Z,47.96
2022-12-05T01:44:39.864Z,61.45
2022-12-05T01:45:39.870Z,67.17
2022-12-05T01:46:39.802Z,59.38
2022-12-05T01:47:39.800Z,56.05
2022-12-05T01:48:39.800Z,68.06
2022-12-05T01:49:39.808Z,55.97
2022-12-05T01:50:39.779Z,50.50
2022-12-05T01:51:39.780Z,48.30
2022-12-05T01:52:39.760Z,54.61
2022-12-05T01:53:39.740Z,55.52
2022-12-05T01:54:39.736Z,59.82
2022-12-05T01:55:39.745Z,56.69
2022-12-05T01:56:39.739Z,50.47
2022-12-05T01:57:39.755Z,54.31
2022-12-05T01:58:39.701Z,52.91
2022-12-05T01:59:39.709Z,54.29
2022-12-05T02:00:39.671Z,57.82
2022-12-05T02:01:39.718Z,64.66
2022-12-05T02:02:39.707Z,56.60
2022-12-05T02:03:39.645Z,55.34
2022-12-05T02:04:39.648Z,54.19
2022-12-05T02:05:39.628Z,48.12
2022-12-05T02:06:39.626Z,50.18
2022-12-05T02:07:39.695Z,48.05
2022-12-05T02:08:39.610Z,47.56
2022-12-05T02:09:39.593Z,48.02
2022-12-05T02:10:39.586Z,50.41
2022-12-05T02:11:39.576Z,57.80
2022-12-05T02:12:39.590Z,60.80
2022-12-05T02:13:39.586Z,50.27
2022-12-05T02:14:39.536Z,47.45
2022-12-05T02:15:39.533Z,49.05
2022-12-05T02:16:39.583Z,47.67
2022-12-05T02:17:39.524Z,50.53
2022-12-05T02:18:39.515Z,60.61
2022-12-05T02:19:39.533Z,53.62
2022-12-05T02:20:39.498Z,53.64
2022-12-05T02:21:39.492Z,57.53
2022-12-05T02:22:39.475Z,52.18
2022-12-05T02:23:39.466Z,54.47
2022-12-05T02:24:39.468Z,57.48
2022-12-05T02:25:39.444Z,50.50
2022-12-05T02:26:39.450Z,52.71
2022-12-05T02:27:39.445Z,53.47
2022-12-05T02:28:39.437Z,55.59
2022-12-05T02:29:39.398Z,60.67
2022-12-05T02:30:39.392Z,64.01
2022-12-05T02:31:39.483Z,54.51
2022-12-05T02:32:39.407Z,49.12
2022-12-05T02:33:39.368Z,49.73
2022-12-05T02:34:39.354Z,53.75
2022-12-05T02:35:39.341Z,62.17
2022-12-05T02:36:39.341Z,54.27
2022-12-05T02:37:39.351Z,56.78
2022-12-05T02:38:39.327Z,52.43
2022-12-05T02:39:39.312Z,48.63
2022-12-05T02:40:39.334Z,49.46
2022-12-05T02:41:39.297Z,54.86
2022-12-05T02:42:39.298Z,51.63
2022-12-05T02:43:39.289Z,55.21
2022-12-05T02:44:39.247Z,57.14
2022-12-05T02:45:39.264Z,61.28
2022-12-05T02:46:39.239Z,52.64
2022-12-05T02:47:39.206Z,52.01
2022-12-05T02:48:39.233Z,53.45
2022-12-05T02:49:39.233Z,52.34
2022-12-05T02:50:39.198Z,50.29
2022-12-05T02:51:39.181Z,53.62
2022-12-05T02:52:39.168Z,50.82
2022-12-05T02:53:39.170Z,50.86
2022-12-05T02:54:39.175Z,55.01
2022-12-05T02:55:39.156Z,55.34
2022-12-05T02:56:39.132Z,57.00
2022-12-05T02:57:39.127Z,55.55
2022-12-05T02:58:39.124Z,54.12
2022-12-05T03:00:11.012Z,56.77
2022-12-05T03:00:39.158Z,50.96
2022-12-05T03:01:39.131Z,57.10
2022-12-05T03:02:39.121Z,52.13
2022-12-05T03:03:39.090Z,55.90
2022-12-05T03:04:39.104Z,50.46
2022-12-05T03:05:39.079Z,52.81
2022-12-05T03:06:39.048Z,53.50
2022-12-05T03:07:39.098Z,54.10
2022-12-05T03:08:39.018Z,53.25
2022-12-05T03:09:39.017Z,50.98
2022-12-05T03:10:39.011Z,53.12
2022-12-05T03:11:38.981Z,52.69
2022-12-05T03:12:38.997Z,58.58
2022-12-05T03:13:38.979Z,54.59
2022-12-05T03:14:38.952Z,49.31
2022-12-05T03:15:38.977Z,50.75
2022-12-05T03:16:38.963Z,52.04
2022-12-05T03:17:38.930Z,57.44
2022-12-05T03:18:38.917Z,52.73
2022-12-05T03:19:38.928Z,53.55
2022-12-05T03:20:38.943Z,48.28
2022-12-05T03:21:38.905Z,52.30
2022-12-05T03:22:38.886Z,55.20
2022-12-05T03:23:38.891Z,50.60
2022-12-05T03:24:38.866Z,53.20
2022-12-05T03:25:38.879Z,63.59
2022-12-05T03:26:38.885Z,55.45
2022-12-05T03:27:38.838Z,57.13
2022-12-05T03:28:38.817Z,52.07
2022-12-05T03:29:38.813Z,51.19
2022-12-05T03:30:38.866Z,57.15
2022-12-05T03:31:38.816Z,57.22
2022-12-05T03:32:38.805Z,60.54
2022-12-05T03:33:38.789Z,52.96
2022-12-05T03:34:38.764Z,56.10
2022-12-05T03:35:38.756Z,54.52
2022-12-05T03:36:38.756Z,53.25
2022-12-05T03:37:38.770Z,54.91
2022-12-05T03:38:38.732Z,56.08
2022-12-05T03:39:38.720Z,59.45
2022-12-05T03:40:38.799Z,53.96
2022-12-05T03:41:38.711Z,52.74
2022-12-05T03:42:38.683Z,54.68
2022-12-05T03:43:38.722Z,61.45
2022-12-05T03:44:38.678Z,56.66
2022-12-05T03:45:38.718Z,56.38
2022-12-05T03:46:38.756Z,63.49
2022-12-05T03:47:38.653Z,58.42
2022-12-05T03:48:38.658Z,52.88
2022-12-05T03:49:38.642Z,54.48
2022-12-05T03:50:38.694Z,54.44
2022-12-05T03:51:38.638Z,65.82
2022-12-05T03:53:10.972Z,54.47
2022-12-05T03:53:40.631Z,53.62
2022-12-05T03:54:38.594Z,58.82
2022-12-05T03:55:38.608Z,56.77
2022-12-05T03:56:38.584Z,64.86
2022-12-05T03:57:38.541Z,56.04
2022-12-05T03:58:38.536Z,55.30
2022-12-05T03:59:38.577Z,59.77
2022-12-05T04:00:38.529Z,59.50
2022-12-05T04:01:38.548Z,57.14
2022-12-05T04:02:38.512Z,58.18
2022-12-05T04:03:38.604Z,54.59
2022-12-05T04:04:38.520Z,60.16
2022-12-05T04:05:38.497Z,59.51
2022-12-05T04:06:38.486Z,60.50
2022-12-05T04:07:38.530Z,57.93
2022-12-05T04:08:38.470Z,59.86
2022-12-05T04:09:38.431Z,58.09
2022-12-05T04:10:38.437Z,54.72
2022-12-05T04:11:38.416Z,59.31
2022-12-05T04:12:38.427Z,57.37
2022-12-05T04:13:38.395Z,53.24
2022-12-05T04:14:38.385Z,55.79
2022-12-05T04:15:38.442Z,57.70
2022-12-05T04:16:38.364Z,55.81
2022-12-05T04:17:38.388Z,56.78
2022-12-05T04:18:38.379Z,61.25
2022-12-05T04:19:38.341Z,56.63
2022-12-05T04:20:38.313Z,57.87
2022-12-05T04:21:39.345Z,58.53
2022-12-05T04:22:38.333Z,58.49
2022-12-05T04:23:39.814Z,58.23
2022-12-05T04:24:38.306Z,66.83
2022-12-05T04:25:38.292Z,58.17
2022-12-05T04:26:38.274Z,57.03
2022-12-05T04:27:38.381Z,58.81
2022-12-05T04:28:38.251Z,59.87
2022-12-05T04:29:38.244Z,58.75
2022-12-05T04:30:38.264Z,62.28
2022-12-05T04:31:38.266Z,60.34
2022-12-05T04:32:38.227Z,59.41
2022-12-05T04:33:38.200Z,58.90
2022-12-05T04:34:38.212Z,59.59
2022-12-05T04:35:38.213Z,59.45
2022-12-05T04:36:38.170Z,61.51
2022-12-05T04:37:38.147Z,59.84
2022-12-05T04:38:38.156Z,58.90
2022-12-05T04:39:38.153Z,64.12
2022-12-05T04:40:38.114Z,58.01
2022-12-05T04:41:38.133Z,60.64
2022-12-05T04:42:38.116Z,59.02
2022-12-05T04:43:38.112Z,57.51
2022-12-05T04:44:38.088Z,61.40
2022-12-05T04:45:38.079Z,56.56
2022-12-05T04:46:38.126Z,59.06
2022-12-05T04:47:38.065Z,59.13
2022-12-05T04:48:38.049Z,57.15
2022-12-05T04:49:38.044Z,60.16
2022-12-05T04:50:38.027Z,57.75
2022-12-05T04:51:38.019Z,56.72
2022-12-05T04:52:38.003Z,60.17
2022-12-05T04:53:37.992Z,58.90
2022-12-05T04:54:37.999Z,56.15
2022-12-05T04:55:37.969Z,57.66
2022-12-05T04:56:37.968Z,56.61
2022-12-05T04:57:37.967Z,60.90
2022-12-05T04:58:37.950Z,58.59
2022-12-05T04:59:37.960Z,60.23
2022-12-05T05:00:37.918Z,60.35
2022-12-05T05:01:37.978Z,58.36
2022-12-05T05:02:37.951Z,59.04
2022-12-05T05:03:37.899Z,58.38
2022-12-05T05:04:37.886Z,59.01
2022-12-05T05:05:37.874Z,60.22
2022-12-05T05:06:38.911Z,59.81
2022-12-05T05:07:37.899Z,58.98
2022-12-05T05:08:37.839Z,58.44
2022-12-05T05:09:37.860Z,60.56
2022-12-05T05:10:37.842Z,65.54
2022-12-05T05:11:37.848Z,58.54
2022-12-05T05:12:37.820Z,58.46
2022-12-05T05:13:37.805Z,59.90
2022-12-05T05:14:37.782Z,58.49
2022-12-05T05:15:38.861Z,59.19
2022-12-05T05:16:37.909Z,62.18
2022-12-05T05:17:37.759Z,60.93
2022-12-05T05:18:37.752Z,60.49
2022-12-05T05:19:37.746Z,60.65
2022-12-05T05:20:37.732Z,59.97
2022-12-05T05:21:37.733Z,59.42
2022-12-05T05:22:37.712Z,57.72
2022-12-05T05:23:37.711Z,59.64
2022-12-05T05:24:37.674Z,61.69
2022-12-05T05:25:37.687Z,60.03
2022-12-05T05:26:37.687Z,59.45
2022-12-05T05:27:37.648Z,59.32
2022-12-05T05:28:37.633Z,60.41
2022-12-05T05:29:37.671Z,59.60
2022-12-05T05:30:37.628Z,60.38
2022-12-05T05:31:37.678Z,60.03
2022-12-05T05:32:37.632Z,61.04
2022-12-05T05:33:37.608Z,61.54
2022-12-05T05:34:37.607Z,59.84
2022-12-05T05:35:37.577Z,60.79
2022-12-05T05:36:37.554Z,60.14
2022-12-05T05:37:37.565Z,60.05
2022-12-05T05:38:37.535Z,63.71
2022-12-05T05:39:37.602Z,63.91
2022-12-05T05:40:37.541Z,60.62
2022-12-05T05:41:37.549Z,60.62
2022-12-05T05:42:37.545Z,67.46
2022-12-05T05:43:37.498Z,60.67
2022-12-05T05:44:37.495Z,61.55
2022-12-05T05:45:37.486Z,60.45
2022-12-05T05:46:37.538Z,61.66
2022-12-05T05:47:37.492Z,59.23
2022-12-05T05:48:37.448Z,59.30
2022-12-05T05:49:37.441Z,58.90
2022-12-05T05:50:37.438Z,62.55
2022-12-05T05:51:37.428Z,61.45
2022-12-05T05:52:37.439Z,62.21
2022-12-05T05:53:37.431Z,62.19
2022-12-05T05:54:37.378Z,60.41
2022-12-05T05:55:37.393Z,62.45
2022-12-05T05:56:37.382Z,63.54
2022-12-05T05:57:37.369Z,61.55
2022-12-05T05:58:37.366Z,61.99
2022-12-05T05:59:37.351Z,59.78
2022-12-05T06:00:37.328Z,65.46
2022-12-05T06:01:37.326Z,60.81
2022-12-05T06:02:37.563Z,60.90
2022-12-05T06:03:37.470Z,60.44
2022-12-05T06:04:37.333Z,63.08
2022-12-05T06:05:37.271Z,59.58
2022-12-05T06:06:37.265Z,60.24
2022-12-05T06:07:37.274Z,61.33
2022-12-05T06:08:37.258Z,64.84
2022-12-05T06:09:37.246Z,61.42
2022-12-05T06:10:37.210Z,61.05
2022-12-05T06:11:37.209Z,60.76
2022-12-05T06:12:37.194Z,62.10
2022-12-05T06:13:37.212Z,61.73
2022-12-05T06:14:37.194Z,60.39
2022-12-05T06:15:37.169Z,60.01
2022-12-05T06:16:37.213Z,60.84
2022-12-05T06:17:37.162Z,61.43
2022-12-05T06:18:37.212Z,60.61
2022-12-05T06:19:37.150Z,61.47
2022-12-05T06:20:37.132Z,60.63
2022-12-05T06:21:37.141Z,59.30
2022-12-05T06:22:37.116Z,60.97
2022-12-05T06:23:37.118Z,61.25
2022-12-05T06:24:37.081Z,61.03
2022-12-05T06:25:37.099Z,63.36
2022-12-05T06:26:37.087Z,62.07
2022-12-05T06:27:37.060Z,62.27
2022-12-05T06:28:37.087Z,62.61
2022-12-05T06:29:37.046Z,63.01
2022-12-05T06:30:37.041Z,61.77
2022-12-05T06:31:37.070Z,61.51
2022-12-05T06:32:37.027Z,67.87
2022-12-05T06:33:36.999Z,63.66
2022-12-05T06:34:37.008Z,61.03
2022-12-05T06:35:36.987Z,60.94
2022-12-05T06:36:37.995Z,63.65
2022-12-05T06:37:36.991Z,60.60
2022-12-05T06:38:41.845Z,61.33
2022-12-05T06:39:37.949Z,61.57
2022-12-05T06:40:36.977Z,61.24
2022-12-05T06:41:36.952Z,66.42
2022-12-05T06:42:36.918Z,61.32
2022-12-05T06:43:36.927Z,60.91
2022-12-05T06:44:36.905Z,61.09
2022-12-05T06:45:36.921Z,62.54
2022-12-05T06:46:36.906Z,61.07
2022-12-05T06:47:36.870Z,60.13
2022-12-05T06:48:36.862Z,60.82
2022-12-05T06:49:38.284Z,61.71
2022-12-05T06:50:36.854Z,61.55
2022-12-05T06:51:36.869Z,59.79
2022-12-05T06:52:36.830Z,59.60
2022-12-05T06:53:36.793Z,60.00
2022-12-05T06:54:36.808Z,59.80
2022-12-05T06:55:36.792Z,60.80
2022-12-05T06:56:36.794Z,59.83
2022-12-05T06:57:36.788Z,61.20
2022-12-05T06:58:36.765Z,59.38
2022-12-05T06:59:36.763Z,59.01
2022-12-05T07:00:36.739Z,62.67
2022-12-05T07:01:36.822Z,59.14
2022-12-05T07:02:36.749Z,59.84
2022-12-05T07:03:36.731Z,58.87
2022-12-05T07:04:36.716Z,59.88
2022-12-05T07:05:36.687Z,61.07
2022-12-05T07:06:36.692Z,60.35
2022-12-05T07:07:36.726Z,60.39
2022-12-05T07:08:36.672Z,60.08
2022-12-05T07:09:36.654Z,60.73
2022-12-05T07:10:36.659Z,60.20
2022-12-05T07:11:36.692Z,58.93
2022-12-05T07:12:36.621Z,59.80
2022-12-05T07:13:36.625Z,60.07
2022-12-05T07:14:47.636Z,59.97
2022-12-05T07:15:37.606Z,60.43
2022-12-05T07:16:36.618Z,60.18
2022-12-05T07:17:36.580Z,59.34
2022-12-05T07:18:36.561Z,63.43
2022-12-05T07:19:36.563Z,59.49
2022-12-05T07:21:10.274Z,57.44
2022-12-05T07:21:38.532Z,60.46
2022-12-05T07:22:36.517Z,61.39
2022-12-05T07:23:36.526Z,60.48
2022-12-05T07:24:36.505Z,59.57
2022-12-05T07:25:36.501Z,59.42
2022-12-05T07:26:36.483Z,61.27
2022-12-05T07:27:36.474Z,61.59
2022-12-05T07:28:36.477Z,60.98
2022-12-05T07:29:36.467Z,60.89
2022-12-05T07:30:36.453Z,61.23
2022-12-05T07:31:36.497Z,62.61
2022-12-05T07:32:36.441Z,60.00
2022-12-05T07:33:36.423Z,60.13
2022-12-05T07:34:37.403Z,61.29
2022-12-05T07:35:36.421Z,62.09
2022-12-05T07:36:36.384Z,60.73
2022-12-05T07:37:36.402Z,61.41
2022-12-05T07:38:36.379Z,59.86
2022-12-05T07:39:36.352Z,59.39
2022-12-05T07:40:36.354Z,58.78
2022-12-05T07:41:36.359Z,60.77
2022-12-05T07:42:36.320Z,61.12
2022-12-05T07:43:36.323Z,63.42
2022-12-05T07:44:36.316Z,61.49
2022-12-05T07:45:36.350Z,59.50
2022-12-05T07:46:36.277Z,60.32
2022-12-05T07:47:36.382Z,60.31
2022-12-05T07:48:36.285Z,60.78
2022-12-05T07:49:36.250Z,58.04
2022-12-05T07:50:36.251Z,59.39
2022-12-05T07:51:36.233Z,60.68
2022-12-05T07:52:36.221Z,61.09
2022-12-05T07:53:36.234Z,60.37
2022-12-05T07:54:36.203Z,61.67
2022-12-05T07:55:36.183Z,59.24
2022-12-05T07:56:36.204Z,58.50
2022-12-05T07:57:36.172Z,57.29
2022-12-05T07:58:36.178Z,58.55
2022-12-05T07:59:36.204Z,61.01
2022-12-05T08:00:36.155Z,62.69
2022-12-05T08:01:36.193Z,67.83
2022-12-05T08:02:40.486Z,61.23
2022-12-05T08:03:37.121Z,61.69
2022-12-05T08:04:36.135Z,61.55
2022-12-05T08:05:36.109Z,62.69
2022-12-05T08:06:37.105Z,61.11
2022-12-05T08:07:36.111Z,62.38
2022-12-05T08:08:36.067Z,63.02
2022-12-05T08:09:36.051Z,60.24
2022-12-05T08:10:36.085Z,59.98
2022-12-05T08:11:36.045Z,59.13
2022-12-05T08:12:36.027Z,59.29
2022-12-05T08:13:36.024Z,60.13
2022-12-05T08:14:36.026Z,64.86
2022-12-05T08:15:36.044Z,61.71
2022-12-05T08:16:37.098Z,61.71
2022-12-05T08:17:35.982Z,60.11
2022-12-05T08:18:35.982Z,60.35
2022-12-05T08:19:36.998Z,58.48
2022-12-05T08:20:35.976Z,61.33
2022-12-05T08:21:35.951Z,61.01
2022-12-05T08:22:35.927Z,61.07
2022-12-05T08:23:35.946Z,60.84
2022-12-05T08:24:35.927Z,60.48
2022-12-05T08:25:35.922Z,60.09
2022-12-05T08:26:35.886Z,61.22
2022-12-05T08:27:35.890Z,57.46
2022-12-05T08:28:35.896Z,60.36
2022-12-05T08:29:35.906Z,60.34
2022-12-05T08:30:35.927Z,59.03
2022-12-05T08:31:35.865Z,59.51
2022-12-05T08:32:35.861Z,61.88
2022-12-05T08:33:35.874Z,61.44
2022-12-05T08:34:35.826Z,62.43
2022-12-05T08:35:35.807Z,59.22
2022-12-05T08:36:35.821Z,60.62
2022-12-05T08:37:35.802Z,61.29
2022-12-05T08:38:35.788Z,58.82
2022-12-05T08:39:38.628Z,59.53
2022-12-05T08:40:36.784Z,60.30
2022-12-05T08:41:35.745Z,60.91
2022-12-05T08:42:35.751Z,60.82
2022-12-05T08:43:35.753Z,59.11
2022-12-05T08:44:35.758Z,60.30
2022-12-05T08:45:35.708Z,60.22
2022-12-05T08:46:35.753Z,60.26
2022-12-05T08:47:35.720Z,60.71
2022-12-05T08:48:35.677Z,61.00
2022-12-05T08:49:35.703Z,61.02
2022-12-05T08:50:35.652Z,60.90
2022-12-05T08:51:35.666Z,57.89
2022-12-05T08:52:35.728Z,59.99
2022-12-05T08:53:39.550Z,60.13
2022-12-05T08:54:37.644Z,59.89
2022-12-05T08:55:35.622Z,58.58
2022-12-05T08:56:35.603Z,56.90
2022-12-05T08:57:35.606Z,56.50
2022-12-05T08:58:35.591Z,56.70
2022-12-05T08:59:35.716Z,58.65
2022-12-05T09:01:07.503Z,59.00
2022-12-05T09:01:35.591Z,60.52
2022-12-05T09:02:35.613Z,60.03
2022-12-05T09:03:35.546Z,62.99
2022-12-05T09:04:35.527Z,60.59
2022-12-05T09:05:35.533Z,61.66
2022-12-05T09:06:35.517Z,59.87
2022-12-05T09:07:35.549Z,59.94
2022-12-05T09:08:35.477Z,59.04
2022-12-05T09:09:35.472Z,60.49
2022-12-05T09:10:35.483Z,63.35
2022-12-05T09:11:35.472Z,60.51
2022-12-05T09:12:35.452Z,59.71
2022-12-05T09:13:35.448Z,60.71
2022-12-05T09:14:35.433Z,60.34
2022-12-05T09:15:35.449Z,59.47
2022-12-05T09:16:38.115Z,61.06
2022-12-05T09:17:36.427Z,61.15
2022-12-05T09:18:38.201Z,60.18
2022-12-05T09:19:35.390Z,59.74
2022-12-05T09:20:35.385Z,60.71
2022-12-05T09:21:35.434Z,60.38
2022-12-05T09:22:35.340Z,60.09
2022-12-05T09:23:35.336Z,58.74
2022-12-05T09:24:35.362Z,58.62
2022-12-05T09:25:35.326Z,60.93
2022-12-05T09:26:35.312Z,61.74
2022-12-05T09:27:35.302Z,61.29
2022-12-05T09:28:35.295Z,59.37
2022-12-05T09:29:35.283Z,60.56
2022-12-05T09:30:35.295Z,59.57
2022-12-05T09:31:35.315Z,60.15
2022-12-05T09:32:35.243Z,61.99
2022-12-05T09:33:35.241Z,61.31
2022-12-05T09:34:35.263Z,59.72
2022-12-05T09:35:35.309Z,62.24
2022-12-05T09:36:35.265Z,62.03
2022-12-05T09:37:39.842Z,59.12
2022-12-05T09:38:37.191Z,59.26
2022-12-05T09:39:35.215Z,59.27
2022-12-05T09:40:35.167Z,62.37
2022-12-05T09:41:35.177Z,60.11
2022-12-05T09:42:35.154Z,63.14
2022-12-05T09:43:35.155Z,59.00
2022-12-05T09:44:35.146Z,61.37
2022-12-05T09:45:35.133Z,60.55
2022-12-05T09:46:35.919Z,61.60
2022-12-05T09:47:36.119Z,62.69
2022-12-05T09:48:35.090Z,63.81
2022-12-05T09:49:35.080Z,59.52
2022-12-05T09:50:35.078Z,59.23
2022-12-05T09:51:35.056Z,58.83
2022-12-05T09:52:35.077Z,59.40
2022-12-05T09:53:35.055Z,60.95
2022-12-05T09:54:35.020Z,62.11
2022-12-05T09:55:35.040Z,61.19
2022-12-05T09:56:35.028Z,60.01
2022-12-05T09:57:35.004Z,61.92
2022-12-05T09:58:35.036Z,60.26
2022-12-05T09:59:35.005Z,58.72
2022-12-05T10:00:34.989Z,58.90
2022-12-05T10:01:35.047Z,59.62
2022-12-05T10:02:34.949Z,60.41
2022-12-05T10:03:35.020Z,61.94
2022-12-05T10:04:35.988Z,70.44
2022-12-05T10:05:34.928Z,59.78
2022-12-05T10:06:34.918Z,60.86
2022-12-05T10:07:34.970Z,60.10
2022-12-05T10:08:34.906Z,59.72
2022-12-05T10:09:34.902Z,60.09
2022-12-05T10:10:34.879Z,60.10
2022-12-05T10:11:34.870Z,59.28
2022-12-05T10:12:34.867Z,61.85
2022-12-05T10:13:34.873Z,62.00
2022-12-05T10:14:34.858Z,66.95
2022-12-05T10:15:34.863Z,62.68
2022-12-05T10:16:34.923Z,64.39
2022-12-05T10:17:34.830Z,63.14
2022-12-05T10:18:34.795Z,60.15
2022-12-05T10:19:34.797Z,60.03
2022-12-05T10:20:34.789Z,59.80
2022-12-05T10:21:34.793Z,63.17
2022-12-05T10:22:34.805Z,60.53
2022-12-05T10:23:56.431Z,60.75
2022-12-05T10:24:35.744Z,60.61
2022-12-05T10:25:34.741Z,63.34
2022-12-05T10:26:34.740Z,59.57
2022-12-05T10:27:39.764Z,59.80
2022-12-05T10:28:34.713Z,61.38
2022-12-05T10:29:34.704Z,59.33
2022-12-05T10:30:34.706Z,60.59
2022-12-05T10:31:34.783Z,60.10
2022-12-05T10:32:34.664Z,61.21
2022-12-05T10:33:34.721Z,60.60
2022-12-05T10:34:34.649Z,58.94
2022-12-05T10:35:34.628Z,59.33
2022-12-05T10:36:34.673Z,61.92
2022-12-05T10:37:34.619Z,62.28
2022-12-05T10:38:34.687Z,59.89
2022-12-05T10:39:34.597Z,61.90
2022-12-05T10:40:34.595Z,62.08
2022-12-05T10:41:34.620Z,60.53
2022-12-05T10:42:34.577Z,59.12
2022-12-05T10:43:34.579Z,61.44
2022-12-05T10:44:34.541Z,58.16
2022-12-05T10:45:34.537Z,59.29
2022-12-05T10:46:34.607Z,64.58
2022-12-05T10:47:34.519Z,63.86
2022-12-05T10:48:34.533Z,60.38
2022-12-05T10:49:34.507Z,59.70
2022-12-05T10:50:34.489Z,60.87
2022-12-05T10:51:37.715Z,62.29
2022-12-05T10:52:34.493Z,58.64
2022-12-05T10:53:34.462Z,59.55
2022-12-05T10:54:34.463Z,64.73
2022-12-05T10:55:34.459Z,60.98
2022-12-05T10:56:34.980Z,66.73
2022-12-05T10:57:34.448Z,60.45
2022-12-05T10:58:34.407Z,60.99
2022-12-05T10:59:34.404Z,58.81
2022-12-05T11:00:34.397Z,59.89
2022-12-05T11:01:34.417Z,60.29
2022-12-05T11:02:34.396Z,58.89
2022-12-05T11:03:34.353Z,58.22
2022-12-05T11:04:34.478Z,65.75
2022-12-05T11:05:34.396Z,61.20
2022-12-05T11:06:34.334Z,60.61
2022-12-05T11:07:34.428Z,60.57
2022-12-05T11:09:03.131Z,60.51
2022-12-05T11:09:36.305Z,57.99
2022-12-05T11:10:34.308Z,60.80
2022-12-05T11:11:34.302Z,60.35
2022-12-05T11:12:34.289Z,63.08
2022-12-05T11:13:34.258Z,59.08
2022-12-05T11:14:34.271Z,61.31
2022-12-05T11:15:34.246Z,57.56
2022-12-05T11:16:34.291Z,67.14
2022-12-05T11:17:34.224Z,59.28
2022-12-05T11:18:34.220Z,61.84
2022-12-05T11:19:34.195Z,59.75
2022-12-05T11:20:34.274Z,59.13
2022-12-05T11:21:34.175Z,62.56
2022-12-05T11:22:34.167Z,60.68
2022-12-05T11:23:34.165Z,60.63
2022-12-05T11:24:34.152Z,61.25
2022-12-05T11:25:34.168Z,60.15
2022-12-05T11:26:34.138Z,59.91
2022-12-05T11:27:34.132Z,60.13
2022-12-05T11:28:34.117Z,64.76
2022-12-05T11:29:34.128Z,59.80
2022-12-05T11:30:34.144Z,59.70
2022-12-05T11:31:34.138Z,60.47
2022-12-05T11:32:35.095Z,60.65
2022-12-05T11:33:34.071Z,60.77
2022-12-05T11:34:34.048Z,61.13
2022-12-05T11:35:34.052Z,60.58
2022-12-05T11:36:34.054Z,60.90
2022-12-05T11:37:34.061Z,62.09
2022-12-05T11:38:34.012Z,61.00
2022-12-05T11:39:34.025Z,60.71
2022-12-05T11:40:38.129Z,63.43
2022-12-05T11:41:34.998Z,60.78
2022-12-05T11:42:33.982Z,60.42
2022-12-05T11:43:33.968Z,60.19
2022-12-05T11:44:33.974Z,60.79
2022-12-05T11:45:33.936Z,60.20
2022-12-05T11:46:34.031Z,60.60
2022-12-05T11:47:33.983Z,60.15
2022-12-05T11:48:33.934Z,62.92
2022-12-05T11:49:33.928Z,59.89
2022-12-05T11:50:33.899Z,62.13
2022-12-05T11:51:33.889Z,59.94
2022-12-05T11:52:40.273Z,59.54
2022-12-05T11:53:34.863Z,60.46
2022-12-05T11:55:04.017Z,61.55
2022-12-05T11:55:35.846Z,59.30
2022-12-05T11:56:33.835Z,59.83
2022-12-05T11:57:33.840Z,60.54
2022-12-05T11:58:33.820Z,60.96
2022-12-05T11:59:33.825Z,60.33
2022-12-05T12:00:33.794Z,60.36
2022-12-05T12:01:33.873Z,62.27
2022-12-05T12:02:33.881Z,63.24
2022-12-05T12:03:33.913Z,63.35
2022-12-05T12:04:33.787Z,60.38
2022-12-05T12:05:33.743Z,60.81
2022-12-05T12:06:33.754Z,60.58
2022-12-05T12:07:33.748Z,61.43
2022-12-05T12:08:33.714Z,60.30
2022-12-05T12:09:33.715Z,67.23
2022-12-05T12:10:33.695Z,61.45
2022-12-05T12:11:33.685Z,62.15
2022-12-05T12:12:33.673Z,58.76
2022-12-05T12:13:33.680Z,60.22
2022-12-05T12:14:33.661Z,61.32
2022-12-05T12:15:33.687Z,61.00
2022-12-05T12:16:33.700Z,62.06
2022-12-05T12:17:34.628Z,59.77
2022-12-05T12:18:33.680Z,59.67
2022-12-05T12:19:33.603Z,60.07
2022-12-05T12:20:33.588Z,60.39
2022-12-05T12:21:38.349Z,60.30
2022-12-05T12:22:35.556Z,60.14
2022-12-05T12:23:33.560Z,60.53
2022-12-05T12:24:33.587Z,61.78
2022-12-05T12:25:33.551Z,61.55
2022-12-05T12:26:33.525Z,61.83
2022-12-05T12:27:33.530Z,61.79
2022-12-05T12:28:33.528Z,65.16
2022-12-05T12:29:33.511Z,61.03
2022-12-05T12:30:33.512Z,59.88
2022-12-05T12:31:33.536Z,68.01
2022-12-05T12:32:33.487Z,59.60
2022-12-05T12:33:33.492Z,60.83
2022-12-05T12:34:33.486Z,58.94
2022-12-05T12:35:33.465Z,61.27
2022-12-05T12:36:33.437Z,59.64
2022-12-05T12:37:33.454Z,59.57
2022-12-05T12:38:33.449Z,59.78
2022-12-05T12:39:33.407Z,59.93
2022-12-05T12:40:33.432Z,60.02
2022-12-05T12:41:33.378Z,61.90
2022-12-05T12:42:33.376Z,63.18
2022-12-05T12:43:53.253Z,60.58
2022-12-05T12:44:34.375Z,58.23
2022-12-05T12:45:33.402Z,60.77
2022-12-05T12:46:33.465Z,60.39
2022-12-05T12:47:33.351Z,60.65
2022-12-05T12:48:33.320Z,59.68
2022-12-05T12:49:33.318Z,62.91
2022-12-05T12:50:34.209Z,59.73
2022-12-05T12:51:33.276Z,60.90
2022-12-05T12:52:33.341Z,64.26